createdAt,value
2018-05-06T00:01:24.601Z,1031.72
2018-05-06T00:02:51.952Z,1031.74
2018-05-06T00:04:19.164Z,1031.74
2018-05-06T00:05:46.567Z,1031.72
2018-05-06T00:07:13.939Z,1031.74
2018-05-06T00:08:41.277Z,1031.74
2018-05-06T00:10:08.525Z,1031.72
2018-05-06T00:11:35.798Z,1031.71
2018-05-06T00:13:03.217Z,1031.68
2018-05-06T00:14:30.684Z,1031.66
2018-05-06T00:15:57.869Z,1031.65
2018-05-06T00:17:25.183Z,1031.65
2018-05-06T00:18:52.546Z,1031.66
2018-05-06T00:20:19.671Z,1031.65
2018-05-06T00:21:46.939Z,1031.66
2018-05-06T00:23:14.062Z,1031.65
2018-05-06T00:24:41.498Z,1031.67
2018-05-06T00:26:08.661Z,1031.68
2018-05-06T00:27:35.963Z,1031.72
2018-05-06T00:29:03.301Z,1031.71
2018-05-06T00:30:30.638Z,1031.73
2018-05-06T00:31:58.062Z,1031.75
2018-05-06T00:33:25.471Z,1031.75
2018-05-06T00:34:52.575Z,1031.75
2018-05-06T00:36:19.802Z,1031.73
2018-05-06T00:37:47.177Z,1031.72
2018-05-06T00:39:14.340Z,1031.69
2018-05-06T00:40:41.628Z,1031.68
2018-05-06T00:42:08.998Z,1031.68
2018-05-06T00:43:36.398Z,1031.72
2018-05-06T00:45:03.688Z,1031.73
2018-05-06T00:46:31.152Z,1031.73
2018-05-06T00:47:58.290Z,1031.73
2018-05-06T00:49:25.562Z,1031.70
2018-05-06T00:50:52.855Z,1031.68
2018-05-06T00:52:20.157Z,1031.67
2018-05-06T00:53:47.504Z,1031.67
2018-05-06T00:55:14.702Z,1031.69
2018-05-06T00:56:41.993Z,1031.69
2018-05-06T00:58:09.412Z,1031.69
2018-05-06T00:59:36.835Z,1031.70
2018-05-06T01:01:04.006Z,1031.69
2018-05-06T01:02:31.280Z,1031.73
2018-05-06T01:03:58.556Z,1031.75
2018-05-06T01:05:25.927Z,1031.77
2018-05-06T01:06:53.053Z,1031.78
2018-05-06T01:08:20.218Z,1031.78
2018-05-06T01:09:47.532Z,1031.80
2018-05-06T01:11:14.846Z,1031.81
2018-05-06T01:12:41.950Z,1031.83
2018-05-06T01:14:09.219Z,1031.87
2018-05-06T01:15:36.439Z,1031.87
2018-05-06T01:17:03.725Z,1031.86
2018-05-06T01:18:31.018Z,1031.83
2018-05-06T01:19:58.274Z,1031.81
2018-05-06T01:21:25.584Z,1031.76
2018-05-06T01:22:52.932Z,1031.75
2018-05-06T01:24:20.104Z,1031.73
2018-05-06T01:25:47.308Z,1031.74
2018-05-06T01:27:14.720Z,1031.74
2018-05-06T01:28:41.946Z,1031.75
2018-05-06T01:30:09.265Z,1031.78
2018-05-06T01:31:36.270Z,1031.79
2018-05-06T01:33:03.695Z,1031.81
2018-05-06T01:34:30.858Z,1031.82
2018-05-06T01:35:58.168Z,1031.85
2018-05-06T01:37:25.430Z,1031.85
2018-05-06T01:38:52.767Z,1031.85
2018-05-06T01:40:20.130Z,1031.86
2018-05-06T01:41:47.427Z,1031.86
2018-05-06T01:43:14.762Z,1031.85
2018-05-06T01:44:42.238Z,1031.81
2018-05-06T01:46:09.365Z,1031.80
2018-05-06T01:47:36.687Z,1031.77
2018-05-06T01:49:04.001Z,1031.75
2018-05-06T01:50:31.317Z,1031.75
2018-05-06T01:51:58.606Z,1031.76
2018-05-06T01:53:25.901Z,1031.76
2018-05-06T01:54:53.110Z,1031.77
2018-05-06T01:56:20.440Z,1031.76
2018-05-06T01:57:47.737Z,1031.75
2018-05-06T01:59:15.150Z,1031.75
2018-05-06T02:00:42.411Z,1031.74
2018-05-06T02:02:09.610Z,1031.74
2018-05-06T02:03:36.829Z,1031.75
2018-05-06T02:05:04.111Z,1031.76
2018-05-06T02:06:31.285Z,1031.76
2018-05-06T02:07:58.675Z,1031.76
2018-05-06T02:09:26.014Z,1031.75
2018-05-06T02:10:53.011Z,1031.73
2018-05-06T02:12:20.118Z,1031.70
2018-05-06T02:13:47.438Z,1031.71
2018-05-06T02:15:14.728Z,1031.69
2018-05-06T02:16:42.168Z,1031.73
2018-05-06T02:18:09.477Z,1031.71
2018-05-06T02:19:36.806Z,1031.72
2018-05-06T02:21:04.120Z,1031.71
2018-05-06T02:22:31.543Z,1031.71
2018-05-06T02:23:58.890Z,1031.73
2018-05-06T02:25:25.924Z,1031.73
2018-05-06T02:26:53.273Z,1031.76
2018-05-06T02:28:20.636Z,1031.77
2018-05-06T02:29:48.115Z,1031.80
2018-05-06T02:31:15.363Z,1031.80
2018-05-06T02:32:42.613Z,1031.82
2018-05-06T02:34:09.972Z,1031.82
2018-05-06T02:35:37.168Z,1031.81
2018-05-06T02:37:04.522Z,1031.80
2018-05-06T02:38:31.902Z,1031.80
2018-05-06T02:39:59.329Z,1031.78
2018-05-06T02:41:26.591Z,1031.74
2018-05-06T02:42:53.932Z,1031.76
2018-05-06T02:44:21.102Z,1031.79
2018-05-06T02:45:48.241Z,1031.81
2018-05-06T02:47:15.440Z,1031.82
2018-05-06T02:48:42.792Z,1031.81
2018-05-06T02:50:10.197Z,1031.83
2018-05-06T02:51:37.606Z,1031.83
2018-05-06T02:53:04.719Z,1031.80
2018-05-06T02:54:32.135Z,1031.78
2018-05-06T02:55:59.459Z,1031.78
2018-05-06T02:57:26.736Z,1031.79
2018-05-06T02:58:53.922Z,1031.79
2018-05-06T03:00:21.378Z,1031.83
2018-05-06T03:01:48.551Z,1031.83
2018-05-06T03:03:15.883Z,1031.84
2018-05-06T03:04:43.117Z,1031.85
2018-05-06T03:06:10.513Z,1031.88
2018-05-06T03:07:37.725Z,1031.87
2018-05-06T03:09:04.995Z,1031.90
2018-05-06T03:10:32.406Z,1031.90
2018-05-06T03:11:59.516Z,1031.91
2018-05-06T03:13:26.817Z,1031.87
2018-05-06T03:14:54.236Z,1031.88
2018-05-06T03:16:21.362Z,1031.89
2018-05-06T03:17:48.275Z,1031.92
2018-05-06T03:19:15.560Z,1031.94
2018-05-06T03:20:42.886Z,1031.94
2018-05-06T03:22:10.222Z,1031.96
2018-05-06T03:23:37.484Z,1031.98
2018-05-06T03:25:04.810Z,1032.03
2018-05-06T03:26:32.179Z,1032.05
2018-05-06T03:27:59.485Z,1032.04
2018-05-06T03:29:26.807Z,1032.05
2018-05-06T03:30:54.118Z,1032.02
2018-05-06T03:32:21.348Z,1031.97
2018-05-06T03:33:48.314Z,1031.95
2018-05-06T03:35:15.749Z,1031.96
2018-05-06T03:36:42.974Z,1031.96
2018-05-06T03:38:10.060Z,1031.92
2018-05-06T03:39:37.495Z,1031.90
2018-05-06T03:41:04.865Z,1031.93
2018-05-06T03:42:32.163Z,1031.91
2018-05-06T03:43:59.461Z,1031.92
2018-05-06T03:45:26.723Z,1031.95
2018-05-06T03:46:54.090Z,1031.98
2018-05-06T03:48:21.329Z,1031.99
2018-05-06T03:49:48.457Z,1031.98
2018-05-06T03:51:15.836Z,1031.96
2018-05-06T03:52:43.194Z,1031.95
2018-05-06T03:54:10.344Z,1031.93
2018-05-06T03:55:37.622Z,1031.94
2018-05-06T03:57:04.769Z,1031.95
2018-05-06T03:58:32.061Z,1031.95
2018-05-06T03:59:59.317Z,1031.96
2018-05-06T04:01:26.429Z,1031.99
2018-05-06T04:02:53.602Z,1032.01
2018-05-06T04:04:20.539Z,1032.02
2018-05-06T04:05:48.081Z,1032.02
2018-05-06T04:07:15.347Z,1032.02
2018-05-06T04:08:42.514Z,1032.05
2018-05-06T04:10:09.980Z,1032.05
2018-05-06T04:11:37.148Z,1032.04
2018-05-06T04:13:04.431Z,1032.06
2018-05-06T04:14:31.736Z,1032.10
2018-05-06T04:15:58.787Z,1032.11
2018-05-06T04:17:25.975Z,1032.12
2018-05-06T04:18:53.099Z,1032.15
2018-05-06T04:20:20.083Z,1032.16
2018-05-06T04:21:47.361Z,1032.16
2018-05-06T04:23:14.644Z,1032.17
2018-05-06T04:24:42.097Z,1032.18
2018-05-06T04:26:09.535Z,1032.18
2018-05-06T04:27:36.871Z,1032.16
2018-05-06T04:29:04.256Z,1032.15
2018-05-06T04:30:31.462Z,1032.16
2018-05-06T04:31:58.624Z,1032.11
2018-05-06T04:33:25.843Z,1032.12
2018-05-06T04:34:53.051Z,1032.12
2018-05-06T04:36:20.347Z,1032.12
2018-05-06T04:37:47.605Z,1032.12
2018-05-06T04:39:14.968Z,1032.14
2018-05-06T04:40:42.141Z,1032.13
2018-05-06T04:42:09.308Z,1032.14
2018-05-06T04:43:36.699Z,1032.16
2018-05-06T04:45:03.973Z,1032.16
2018-05-06T04:46:31.134Z,1032.15
2018-05-06T04:47:58.465Z,1032.17
2018-05-06T04:49:25.732Z,1032.16
2018-05-06T04:50:53.080Z,1032.17
2018-05-06T04:52:20.411Z,1032.17
2018-05-06T04:53:47.642Z,1032.16
2018-05-06T04:55:14.950Z,1032.19
2018-05-06T04:56:42.211Z,1032.19
2018-05-06T04:58:09.469Z,1032.20
2018-05-06T04:59:36.871Z,1032.19
2018-05-06T05:01:03.973Z,1032.18
2018-05-06T05:02:31.381Z,1032.15
2018-05-06T05:03:58.642Z,1032.16
2018-05-06T05:05:25.705Z,1032.12
2018-05-06T05:06:53.029Z,1032.10
2018-05-06T05:08:20.373Z,1032.07
2018-05-06T05:09:47.677Z,1032.07
2018-05-06T05:11:15.039Z,1032.04
2018-05-06T05:12:42.359Z,1032.03
2018-05-06T05:14:09.633Z,1032.00
2018-05-06T05:15:36.942Z,1031.94
2018-05-06T05:17:04.283Z,1031.91
2018-05-06T05:18:31.520Z,1031.90
2018-05-06T05:19:58.720Z,1031.90
2018-05-06T05:21:26.004Z,1031.91
2018-05-06T05:22:53.333Z,1031.92
2018-05-06T05:24:20.651Z,1031.94
2018-05-06T05:25:47.556Z,1031.97
2018-05-06T05:27:14.987Z,1032.00
2018-05-06T05:28:42.416Z,1031.99
2018-05-06T05:30:09.581Z,1031.92
2018-05-06T05:31:37.048Z,1031.92
2018-05-06T05:33:04.380Z,1031.94
2018-05-06T05:34:31.834Z,1031.92
2018-05-06T05:35:59.115Z,1031.90
2018-05-06T05:37:26.322Z,1031.88
2018-05-06T05:38:53.623Z,1031.87
2018-05-06T05:40:20.867Z,1031.84
2018-05-06T05:41:48.226Z,1031.81
2018-05-06T05:43:15.449Z,1031.79
2018-05-06T05:44:42.712Z,1031.80
2018-05-06T05:46:10.224Z,1031.77
2018-05-06T05:47:37.503Z,1031.74
2018-05-06T05:49:04.659Z,1031.73
2018-05-06T05:50:31.994Z,1031.74
2018-05-06T05:51:59.257Z,1031.72
2018-05-06T05:53:26.601Z,1031.72
2018-05-06T05:54:53.711Z,1031.69
2018-05-06T05:56:21.129Z,1031.69
2018-05-06T05:57:48.718Z,1031.68
2018-05-06T05:59:15.990Z,1031.68
2018-05-06T06:00:43.494Z,1031.70
2018-05-06T06:02:11.101Z,1031.71
2018-05-06T06:03:38.223Z,1031.71
2018-05-06T06:05:05.745Z,1031.73
2018-05-06T06:06:33.095Z,1031.78
2018-05-06T06:08:00.520Z,1031.78
2018-05-06T06:09:27.773Z,1031.78
2018-05-06T06:10:55.115Z,1031.78
2018-05-06T06:12:22.699Z,1031.77
2018-05-06T06:13:49.854Z,1031.74
2018-05-06T06:15:17.290Z,1031.74
2018-05-06T06:16:44.656Z,1031.77
2018-05-06T06:18:11.808Z,1031.75
2018-05-06T06:19:39.452Z,1031.78
2018-05-06T06:21:06.860Z,1031.78
2018-05-06T06:22:33.856Z,1031.80
2018-05-06T06:24:01.282Z,1031.81
2018-05-06T06:25:28.696Z,1031.84
2018-05-06T06:26:55.942Z,1031.84
2018-05-06T06:28:23.259Z,1031.84
2018-05-06T06:29:50.528Z,1031.85
2018-05-06T06:31:18.141Z,1031.82
2018-05-06T06:32:45.468Z,1031.78
2018-05-06T06:34:13.073Z,1031.82
2018-05-06T06:35:40.427Z,1031.81
2018-05-06T06:37:07.954Z,1031.86
2018-05-06T06:38:35.173Z,1031.88
2018-05-06T06:40:02.592Z,1031.89
2018-05-06T06:41:29.898Z,1031.91
2018-05-06T06:42:57.458Z,1031.92
2018-05-06T06:44:24.579Z,1031.90
2018-05-06T06:45:52.182Z,1031.90
2018-05-06T06:47:19.392Z,1031.91
2018-05-06T06:48:46.994Z,1031.90
2018-05-06T06:50:14.215Z,1031.90
2018-05-06T06:51:41.371Z,1031.89
2018-05-06T06:53:08.975Z,1031.86
2018-05-06T06:54:36.389Z,1031.87
2018-05-06T06:56:03.653Z,1031.90
2018-05-06T06:57:31.083Z,1031.91
2018-05-06T06:58:58.589Z,1031.91
2018-05-06T07:00:26.060Z,1031.93
2018-05-06T07:01:53.385Z,1031.90
2018-05-06T07:03:20.631Z,1031.92
2018-05-06T07:04:48.274Z,1031.91
2018-05-06T07:06:15.639Z,1031.92
2018-05-06T07:07:42.801Z,1031.94
2018-05-06T07:09:10.190Z,1031.94
2018-05-06T07:10:37.668Z,1031.94
2018-05-06T07:12:05.249Z,1031.94
2018-05-06T07:13:32.042Z,1031.93
2018-05-06T07:14:59.469Z,1031.92
2018-05-06T07:16:26.815Z,1031.91
2018-05-06T07:17:54.351Z,1031.88
2018-05-06T07:19:21.873Z,1031.86
2018-05-06T07:20:48.841Z,1031.83
2018-05-06T07:22:16.389Z,1031.84
2018-05-06T07:23:43.863Z,1031.86
2018-05-06T07:25:11.158Z,1031.84
2018-05-06T07:26:38.664Z,1031.86
2018-05-06T07:28:06.106Z,1031.86
2018-05-06T07:29:33.476Z,1031.89
2018-05-06T07:31:01.333Z,1031.90
2018-05-06T07:32:28.104Z,1031.89
2018-05-06T07:33:55.376Z,1031.90
2018-05-06T07:35:22.694Z,1031.87
2018-05-06T07:36:49.912Z,1031.90
2018-05-06T07:38:17.156Z,1031.88
2018-05-06T07:39:44.576Z,1031.90
2018-05-06T07:41:11.734Z,1031.88
2018-05-06T07:42:38.706Z,1031.87
2018-05-06T07:44:06.408Z,1031.85
2018-05-06T07:45:33.688Z,1031.85
2018-05-06T07:47:01.057Z,1031.82
2018-05-06T07:48:28.556Z,1031.80
2018-05-06T07:49:55.927Z,1031.79
2018-05-06T07:51:23.422Z,1031.81
2018-05-06T07:52:50.799Z,1031.79
2018-05-06T07:54:18.135Z,1031.79
2018-05-06T07:55:45.700Z,1031.78
2018-05-06T07:57:13.225Z,1031.78
2018-05-06T07:58:40.536Z,1031.79
2018-05-06T08:00:07.810Z,1031.80
2018-05-06T08:01:35.122Z,1031.80
2018-05-06T08:03:02.418Z,1031.81
2018-05-06T08:04:29.887Z,1031.83
2018-05-06T08:05:57.131Z,1031.81
2018-05-06T08:07:24.574Z,1031.80
2018-05-06T08:08:52.002Z,1031.80
2018-05-06T08:10:19.334Z,1031.83
2018-05-06T08:11:46.788Z,1031.81
2018-05-06T08:13:14.181Z,1031.81
2018-05-06T08:14:41.614Z,1031.82
2018-05-06T08:16:08.730Z,1031.81
2018-05-06T08:17:36.025Z,1031.84
2018-05-06T08:19:03.649Z,1031.84
2018-05-06T08:20:30.846Z,1031.85
2018-05-06T08:21:58.021Z,1031.84
2018-05-06T08:23:25.436Z,1031.84
2018-05-06T08:24:53.001Z,1031.83
2018-05-06T08:26:20.446Z,1031.84
2018-05-06T08:27:47.909Z,1031.83
2018-05-06T08:29:15.252Z,1031.83
2018-05-06T08:30:42.754Z,1031.83
2018-05-06T08:32:10.326Z,1031.85
2018-05-06T08:33:37.628Z,1031.85
2018-05-06T08:35:05.084Z,1031.84
2018-05-06T08:36:32.230Z,1031.82
2018-05-06T08:37:59.782Z,1031.82
2018-05-06T08:39:27.218Z,1031.80
2018-05-06T08:40:54.418Z,1031.79
2018-05-06T08:42:21.950Z,1031.80
2018-05-06T08:43:48.849Z,1031.81
2018-05-06T08:45:16.404Z,1031.81
2018-05-06T08:46:43.869Z,1031.82
2018-05-06T08:48:11.544Z,1031.83
2018-05-06T08:49:38.860Z,1031.85
2018-05-06T08:51:06.406Z,1031.86
2018-05-06T08:52:33.804Z,1031.88
2018-05-06T08:54:01.312Z,1031.92
2018-05-06T08:55:28.810Z,1031.92
2018-05-06T08:56:56.158Z,1031.91
2018-05-06T08:58:23.564Z,1031.91
2018-05-06T08:59:50.891Z,1031.90
2018-05-06T09:01:18.118Z,1031.91
2018-05-06T09:02:45.550Z,1031.90
2018-05-06T09:04:13.101Z,1031.85
2018-05-06T09:05:40.488Z,1031.88
2018-05-06T09:07:08.012Z,1031.85
2018-05-06T09:08:35.480Z,1031.83
2018-05-06T09:10:02.304Z,1031.81
2018-05-06T09:11:29.765Z,1031.78
2018-05-06T09:12:57.181Z,1031.82
2018-05-06T09:14:24.720Z,1031.78
2018-05-06T09:15:52.124Z,1031.75
2018-05-06T09:17:19.457Z,1031.76
2018-05-06T09:18:46.943Z,1031.77
2018-05-06T09:20:14.137Z,1031.77
2018-05-06T09:21:41.505Z,1031.72
2018-05-06T09:23:09.153Z,1031.73
2018-05-06T09:24:36.300Z,1031.77
2018-05-06T09:26:03.539Z,1031.77
2018-05-06T09:27:30.899Z,1031.76
2018-05-06T09:28:58.461Z,1031.71
2018-05-06T09:30:25.919Z,1031.71
2018-05-06T09:31:53.370Z,1031.70
2018-05-06T09:33:20.813Z,1031.68
2018-05-06T09:34:48.227Z,1031.68
2018-05-06T09:36:15.690Z,1031.65
2018-05-06T09:37:43.182Z,1031.66
2018-05-06T09:39:10.530Z,1031.66
2018-05-06T09:40:38.049Z,1031.69
2018-05-06T09:42:05.450Z,1031.64
2018-05-06T09:43:33.116Z,1031.64
2018-05-06T09:45:00.485Z,1031.62
2018-05-06T09:46:27.959Z,1031.64
2018-05-06T09:47:55.244Z,1031.61
2018-05-06T09:49:22.872Z,1031.64
2018-05-06T09:50:50.039Z,1031.63
2018-05-06T09:52:17.602Z,1031.60
2018-05-06T09:53:45.167Z,1031.57
2018-05-06T09:55:12.453Z,1031.59
2018-05-06T09:56:39.942Z,1031.56
2018-05-06T09:58:07.399Z,1031.56
2018-05-06T09:59:34.881Z,1031.55
2018-05-06T10:01:02.303Z,1031.54
2018-05-06T10:02:29.701Z,1031.56
2018-05-06T10:03:57.127Z,1031.55
2018-05-06T10:05:24.591Z,1031.56
2018-05-06T10:06:51.870Z,1031.50
2018-05-06T10:08:19.219Z,1031.46
2018-05-06T10:09:46.634Z,1031.43
2018-05-06T10:11:14.074Z,1031.38
2018-05-06T10:12:41.712Z,1031.37
2018-05-06T10:14:09.090Z,1031.31
2018-05-06T10:15:36.730Z,1031.34
2018-05-06T10:17:03.897Z,1031.35
2018-05-06T10:18:32.343Z,1031.33
2018-05-06T10:19:58.787Z,1031.27
2018-05-06T10:21:26.199Z,1031.29
2018-05-06T10:22:53.381Z,1031.24
2018-05-06T10:24:20.828Z,1031.24
2018-05-06T10:25:47.973Z,1031.27
2018-05-06T10:27:15.125Z,1031.24
2018-05-06T10:28:42.750Z,1031.19
2018-05-06T10:30:10.226Z,1031.20
2018-05-06T10:31:37.669Z,1031.16
2018-05-06T10:33:05.195Z,1031.19
2018-05-06T10:34:32.521Z,1031.14
2018-05-06T10:36:00.070Z,1031.13
2018-05-06T10:37:27.575Z,1031.09
2018-05-06T10:38:54.877Z,1031.11
2018-05-06T10:40:22.489Z,1031.11
2018-05-06T10:41:49.912Z,1031.06
2018-05-06T10:43:17.386Z,1031.05
2018-05-06T10:44:44.884Z,1031.01
2018-05-06T10:46:12.439Z,1031.00
2018-05-06T10:47:39.895Z,1031.01
2018-05-06T10:49:07.195Z,1030.98
2018-05-06T10:50:34.659Z,1030.98
2018-05-06T10:52:02.335Z,1030.97
2018-05-06T10:53:29.660Z,1031.01
2018-05-06T10:54:57.036Z,1030.94
2018-05-06T10:56:24.547Z,1030.91
2018-05-06T10:57:52.027Z,1030.93
2018-05-06T10:59:19.096Z,1030.92
2018-05-06T11:00:46.442Z,1030.93
2018-05-06T11:02:13.871Z,1030.91
2018-05-06T11:03:41.485Z,1030.88
2018-05-06T11:05:08.722Z,1030.88
2018-05-06T11:06:36.398Z,1030.84
2018-05-06T11:08:04.039Z,1030.87
2018-05-06T11:09:31.499Z,1030.90
2018-05-06T11:10:58.944Z,1030.87
2018-05-06T11:12:26.414Z,1030.87
2018-05-06T11:13:53.833Z,1030.86
2018-05-06T11:15:21.150Z,1030.86
2018-05-06T11:16:48.436Z,1030.82
2018-05-06T11:18:15.994Z,1030.83
2018-05-06T11:19:43.312Z,1030.80
2018-05-06T11:21:10.559Z,1030.81
2018-05-06T11:22:38.109Z,1030.79
2018-05-06T11:24:05.735Z,1030.78
2018-05-06T11:25:33.437Z,1030.80
2018-05-06T11:27:00.852Z,1030.80
2018-05-06T11:28:28.197Z,1030.78
2018-05-06T11:29:55.258Z,1030.79
2018-05-06T11:31:22.612Z,1030.73
2018-05-06T11:32:50.006Z,1030.73
2018-05-06T11:34:17.248Z,1030.73
2018-05-06T11:35:44.734Z,1030.73
2018-05-06T11:37:12.353Z,1030.73
2018-05-06T11:38:39.994Z,1030.70
2018-05-06T11:40:07.343Z,1030.68
2018-05-06T11:41:34.806Z,1030.70
2018-05-06T11:43:02.204Z,1030.69
2018-05-06T11:44:29.788Z,1030.69
2018-05-06T11:45:57.147Z,1030.68
2018-05-06T11:47:24.440Z,1030.63
2018-05-06T11:48:51.824Z,1030.64
2018-05-06T11:50:19.275Z,1030.64
2018-05-06T11:51:46.716Z,1030.63
2018-05-06T11:53:14.488Z,1030.61
2018-05-06T11:54:41.906Z,1030.64
2018-05-06T11:56:09.502Z,1030.63
2018-05-06T11:57:36.997Z,1030.63
2018-05-06T11:59:04.519Z,1030.62
2018-05-06T12:00:32.151Z,1030.58
2018-05-06T12:01:59.618Z,1030.57
2018-05-06T12:03:27.149Z,1030.55
2018-05-06T12:04:54.788Z,1030.56
2018-05-06T12:06:22.241Z,1030.50
2018-05-06T12:07:49.564Z,1030.46
2018-05-06T12:09:17.221Z,1030.48
2018-05-06T12:10:44.962Z,1030.45
2018-05-06T12:12:12.406Z,1030.44
2018-05-06T12:13:40.090Z,1030.42
2018-05-06T12:15:07.572Z,1030.38
2018-05-06T12:16:34.932Z,1030.38
2018-05-06T12:18:02.672Z,1030.37
2018-05-06T12:19:30.104Z,1030.30
2018-05-06T12:20:57.333Z,1030.26
2018-05-06T12:22:25.064Z,1030.22
2018-05-06T12:23:52.476Z,1030.26
2018-05-06T12:25:19.789Z,1030.28
2018-05-06T12:26:47.175Z,1030.26
2018-05-06T12:28:14.880Z,1030.24
2018-05-06T12:29:42.432Z,1030.24
2018-05-06T12:31:10.017Z,1030.21
2018-05-06T12:32:37.111Z,1030.21
2018-05-06T12:34:04.678Z,1030.18
2018-05-06T12:35:32.105Z,1030.21
2018-05-06T12:36:59.661Z,1030.20
2018-05-06T12:38:27.261Z,1030.16
2018-05-06T12:39:54.533Z,1030.14
2018-05-06T12:41:22.099Z,1030.11
2018-05-06T12:42:49.503Z,1030.10
2018-05-06T12:44:17.065Z,1030.07
2018-05-06T12:45:44.700Z,1030.09
2018-05-06T12:47:12.184Z,1030.11
2018-05-06T12:48:39.773Z,1030.08
2018-05-06T12:50:07.425Z,1030.07
2018-05-06T12:51:34.470Z,1030.04
2018-05-06T12:53:01.864Z,1030.00
2018-05-06T12:54:29.180Z,1030.00
2018-05-06T12:55:56.509Z,1029.95
2018-05-06T12:57:23.902Z,1029.91
2018-05-06T12:58:51.485Z,1029.89
2018-05-06T13:00:18.676Z,1029.85
2018-05-06T13:01:46.193Z,1029.83
2018-05-06T13:03:13.543Z,1029.84
2018-05-06T13:04:40.995Z,1029.80
2018-05-06T13:06:08.147Z,1029.81
2018-05-06T13:07:35.656Z,1029.82
2018-05-06T13:09:03.089Z,1029.82
2018-05-06T13:10:30.137Z,1029.82
2018-05-06T13:11:57.835Z,1029.79
2018-05-06T13:13:25.142Z,1029.77
2018-05-06T13:14:52.530Z,1029.73
2018-05-06T13:16:19.964Z,1029.76
2018-05-06T13:17:47.619Z,1029.77
2018-05-06T13:19:15.220Z,1029.76
2018-05-06T13:20:42.813Z,1029.76
2018-05-06T13:22:10.350Z,1029.73
2018-05-06T13:23:37.832Z,1029.71
2018-05-06T13:25:05.414Z,1029.72
2018-05-06T13:26:32.828Z,1029.71
2018-05-06T13:28:00.372Z,1029.65
2018-05-06T13:29:27.865Z,1029.68
2018-05-06T13:30:55.103Z,1029.63
2018-05-06T13:32:22.713Z,1029.60
2018-05-06T13:33:50.117Z,1029.58
2018-05-06T13:35:17.582Z,1029.60
2018-05-06T13:36:45.217Z,1029.63
2018-05-06T13:38:12.799Z,1029.58
2018-05-06T13:39:40.303Z,1029.60
2018-05-06T13:41:07.928Z,1029.54
2018-05-06T13:42:35.525Z,1029.53
2018-05-06T13:44:03.019Z,1029.51
2018-05-06T13:45:30.381Z,1029.50
2018-05-06T13:46:57.822Z,1029.44
2018-05-06T13:48:25.319Z,1029.44
2018-05-06T13:49:52.922Z,1029.45
2018-05-06T13:51:20.003Z,1029.44
2018-05-06T13:52:47.632Z,1029.45
2018-05-06T13:54:15.115Z,1029.46
2018-05-06T13:55:42.673Z,1029.43
2018-05-06T13:57:10.248Z,1029.44
2018-05-06T13:58:37.563Z,1029.43
2018-05-06T14:00:04.945Z,1029.41
2018-05-06T14:01:32.376Z,1029.38
2018-05-06T14:02:59.856Z,1029.39
2018-05-06T14:04:27.352Z,1029.39
2018-05-06T14:05:54.914Z,1029.39
2018-05-06T14:07:22.409Z,1029.37
2018-05-06T14:08:50.000Z,1029.39
2018-05-06T14:10:17.190Z,1029.37
2018-05-06T14:11:44.858Z,1029.34
2018-05-06T14:13:12.306Z,1029.36
2018-05-06T14:14:39.799Z,1029.37
2018-05-06T14:16:07.400Z,1029.35
2018-05-06T14:17:34.463Z,1029.35
2018-05-06T14:19:01.889Z,1029.35
2018-05-06T14:20:29.414Z,1029.34
2018-05-06T14:21:57.030Z,1029.38
2018-05-06T14:23:24.557Z,1029.38
2018-05-06T14:24:51.862Z,1029.37
2018-05-06T14:26:19.249Z,1029.34
2018-05-06T14:27:46.735Z,1029.32
2018-05-06T14:29:14.264Z,1029.34
2018-05-06T14:30:41.352Z,1029.30
2018-05-06T14:32:09.051Z,1029.29
2018-05-06T14:33:36.095Z,1029.27
2018-05-06T14:35:03.541Z,1029.21
2018-05-06T14:36:30.897Z,1029.21
2018-05-06T14:37:58.508Z,1029.24
2018-05-06T14:39:26.007Z,1029.24
2018-05-06T14:40:53.552Z,1029.21
2018-05-06T14:42:20.848Z,1029.20
2018-05-06T14:43:48.226Z,1029.20
2018-05-06T14:45:15.674Z,1029.23
2018-05-06T14:46:43.241Z,1029.16
2018-05-06T14:48:10.500Z,1029.14
2018-05-06T14:49:38.010Z,1029.14
2018-05-06T14:51:05.644Z,1029.10
2018-05-06T14:52:32.897Z,1029.11
2018-05-06T14:54:00.539Z,1029.10
2018-05-06T14:55:27.783Z,1029.09
2018-05-06T14:56:55.155Z,1029.10
2018-05-06T14:58:22.667Z,1029.09
2018-05-06T14:59:50.173Z,1029.08
2018-05-06T15:01:17.722Z,1029.05
2018-05-06T15:02:45.247Z,1029.01
2018-05-06T15:04:12.639Z,1029.03
2018-05-06T15:05:40.104Z,1029.00
2018-05-06T15:07:07.394Z,1029.02
2018-05-06T15:08:34.856Z,1029.02
2018-05-06T15:10:02.308Z,1029.01
2018-05-06T15:11:29.655Z,1028.97
2018-05-06T15:12:57.259Z,1028.94
2018-05-06T15:14:24.852Z,1028.91
2018-05-06T15:15:52.118Z,1028.90
2018-05-06T15:17:19.476Z,1028.88
2018-05-06T15:18:47.135Z,1028.86
2018-05-06T15:20:14.499Z,1028.87
2018-05-06T15:21:41.955Z,1028.88
2018-05-06T15:23:09.374Z,1028.86
2018-05-06T15:24:36.687Z,1028.87
2018-05-06T15:26:04.356Z,1028.85
2018-05-06T15:27:31.882Z,1028.86
2018-05-06T15:28:59.254Z,1028.85
2018-05-06T15:30:26.876Z,1028.87
2018-05-06T15:31:54.171Z,1028.88
2018-05-06T15:33:21.557Z,1028.84
2018-05-06T15:34:49.239Z,1028.83
2018-05-06T15:36:16.650Z,1028.82
2018-05-06T15:37:44.191Z,1028.85
2018-05-06T15:39:11.785Z,1028.79
2018-05-06T15:40:39.425Z,1028.83
2018-05-06T15:42:06.934Z,1028.81
2018-05-06T15:43:34.520Z,1028.82
2018-05-06T15:45:01.970Z,1028.83
2018-05-06T15:46:29.345Z,1028.82
2018-05-06T15:47:56.826Z,1028.83
2018-05-06T15:49:24.008Z,1028.82
2018-05-06T15:50:51.502Z,1028.80
2018-05-06T15:52:19.070Z,1028.80
2018-05-06T15:53:46.173Z,1028.78
2018-05-06T15:55:13.710Z,1028.79
2018-05-06T15:56:41.241Z,1028.78
2018-05-06T15:58:08.891Z,1028.76
2018-05-06T15:59:36.607Z,1028.78
2018-05-06T16:01:04.098Z,1028.73
2018-05-06T16:02:31.569Z,1028.72
2018-05-06T16:03:58.970Z,1028.69
2018-05-06T16:05:26.419Z,1028.67
2018-05-06T16:06:53.959Z,1028.65
2018-05-06T16:08:21.343Z,1028.62
2018-05-06T16:09:49.193Z,1028.62
2018-05-06T16:11:16.683Z,1028.61
2018-05-06T16:12:43.996Z,1028.60
2018-05-06T16:14:11.691Z,1028.60
2018-05-06T16:15:38.987Z,1028.59
2018-05-06T16:17:06.605Z,1028.58
2018-05-06T16:18:33.956Z,1028.59
2018-05-06T16:20:01.535Z,1028.58
2018-05-06T16:21:28.882Z,1028.59
2018-05-06T16:22:56.230Z,1028.56
2018-05-06T16:24:23.836Z,1028.55
2018-05-06T16:25:51.248Z,1028.53
2018-05-06T16:27:18.575Z,1028.53
2018-05-06T16:28:49.131Z,1028.55
2018-05-06T16:30:13.421Z,1028.54
2018-05-06T16:31:40.937Z,1028.53
2018-05-06T16:33:08.481Z,1028.52
2018-05-06T16:34:35.945Z,1028.50
2018-05-06T16:36:03.576Z,1028.50
2018-05-06T16:37:30.735Z,1028.49
2018-05-06T16:38:58.048Z,1028.47
2018-05-06T16:40:25.420Z,1028.47
2018-05-06T16:41:53.012Z,1028.46
2018-05-06T16:43:20.505Z,1028.43
2018-05-06T16:44:47.821Z,1028.44
2018-05-06T16:46:15.175Z,1028.42
2018-05-06T16:47:42.847Z,1028.43
2018-05-06T16:49:10.350Z,1028.40
2018-05-06T16:50:38.016Z,1028.43
2018-05-06T16:52:05.353Z,1028.44
2018-05-06T16:53:32.814Z,1028.44
2018-05-06T16:55:00.412Z,1028.44
2018-05-06T16:56:27.794Z,1028.45
2018-05-06T16:57:55.230Z,1028.43
2018-05-06T16:59:22.765Z,1028.42
2018-05-06T17:00:49.956Z,1028.41
2018-05-06T17:02:17.487Z,1028.40
2018-05-06T17:03:45.103Z,1028.39
2018-05-06T17:05:12.699Z,1028.40
2018-05-06T17:06:40.071Z,1028.39
2018-05-06T17:08:07.679Z,1028.38
2018-05-06T17:09:35.180Z,1028.38
2018-05-06T17:11:02.512Z,1028.36
2018-05-06T17:12:30.063Z,1028.38
2018-05-06T17:13:57.537Z,1028.38
2018-05-06T17:15:24.934Z,1028.38
2018-05-06T17:16:52.490Z,1028.40
2018-05-06T17:18:19.704Z,1028.41
2018-05-06T17:19:47.283Z,1028.40
2018-05-06T17:21:14.679Z,1028.39
2018-05-06T17:22:42.361Z,1028.40
2018-05-06T17:24:09.695Z,1028.40
2018-05-06T17:25:37.142Z,1028.42
2018-05-06T17:27:04.712Z,1028.43
2018-05-06T17:28:32.153Z,1028.45
2018-05-06T17:29:59.470Z,1028.42
2018-05-06T17:31:27.074Z,1028.40
2018-05-06T17:32:54.425Z,1028.42
2018-05-06T17:34:21.748Z,1028.42
2018-05-06T17:35:49.073Z,1028.43
2018-05-06T17:37:16.587Z,1028.42